sensor_id;sensor_type;location;lat;lon;timestamp;temperature;humidity
14000;DHT22;7075;53.574;10.054;2023-03-01T00:01:15;4.70;99.90
14000;DHT22;7075;53.574;10.054;2023-03-01T00:03:42;4.70;99.90
14000;DHT22;7075;53.574;10.054;2023-03-01T00:06:10;4.70;99.90
14000;DHT22;7075;53.574;10.054;2023-03-01T00:08:36;4.60;99.90
14000;DHT22;7075;53.574;10.054;2023-03-01T00:11:13;4.60;99.90
14000;DHT22;7075;53.574;10.054;2023-03-01T00:13:41;4.60;99.90
14000;DHT22;7075;53.574;10.054;2023-03-01T00:16:10;4.60;99.90
14000;DHT22;7075;53.574;10.054;2023-03-01T00:18:36;4.60;99.90
14000;DHT22;7075;53.574;10.054;2023-03-01T00:21:02;4.60;99.90
14000;DHT22;7075;53.574;10.054;2023-03-01T00:23:28;4.60;99.90
14000;DHT22;7075;53.574;10.054;2023-03-01T00:25:54;4.60;99.90
14000;DHT22;7075;53.574;10.054;2023-03-01T00:28:20;4.50;99.90
14000;DHT22;7075;53.574;10.054;2023-03-01T00:30:46;4.50;99.90
14000;DHT22;7075;53.574;10.054;2023-03-01T00:33:12;4.50;99.90
14000;DHT22;7075;53.574;10.054;2023-03-01T00:35:38;4.50;99.90
14000;DHT22;7075;53.574;10.054;2023-03-01T00:38:05;4.40;99.90
14000;DHT22;7075;53.574;10.054;2023-03-01T00:40:33;4.40;99.90
14000;DHT22;7075;53.574;10.054;2023-03-01T00:42:59;4.40;99.90
14000;DHT22;7075;53.574;10.054;2023-03-01T00:45:25;4.40;99.90
14000;DHT22;7075;53.574;10.054;2023-03-01T00:47:51;4.40;99.90
14000;DHT22;7075;53.574;10.054;2023-03-01T00:50:18;4.40;99.90
14000;DHT22;7075;53.574;10.054;2023-03-01T00:52:43;4.40;99.90
14000;DHT22;7075;53.574;10.054;2023-03-01T00:55:10;4.40;99.90
14000;DHT22;7075;53.574;10.054;2023-03-01T00:57:36;4.40;99.90
14000;DHT22;7075;53.574;10.054;2023-03-01T01:00:04;4.40;99.90
14000;DHT22;7075;53.574;10.054;2023-03-01T01:02:32;4.30;99.90
14000;DHT22;7075;53.574;10.054;2023-03-01T01:04:58;4.30;99.90
14000;DHT22;7075;53.574;10.054;2023-03-01T01:07:23;4.20;99.90
14000;DHT22;7075;53.574;10.054;2023-03-01T01:09:49;4.20;99.90
14000;DHT22;7075;53.574;10.054;2023-03-01T01:12:15;4.10;99.90
14000;DHT22;7075;53.574;10.054;2023-03-01T01:14:40;4.20;99.90
14000;DHT22;7075;53.574;10.054;2023-03-01T01:17:06;4.20;99.90
14000;DHT22;7075;53.574;10.054;2023-03-01T01:19:32;4.20;99.90
14000;DHT22;7075;53.574;10.054;2023-03-01T01:21:57;4.20;99.90
14000;DHT22;7075;53.574;10.054;2023-03-01T01:24:23;4.10;99.90
14000;DHT22;7075;53.574;10.054;2023-03-01T01:26:49;4.10;99.90
14000;DHT22;7075;53.574;10.054;2023-03-01T01:29:14;4.10;99.90
14000;DHT22;7075;53.574;10.054;2023-03-01T01:31:41;4.10;99.90
14000;DHT22;7075;53.574;10.054;2023-03-01T01:34:16;4.20;99.90
14000;DHT22;7075;53.574;10.054;2023-03-01T01:36:42;4.10;99.90
14000;DHT22;7075;53.574;10.054;2023-03-01T01:39:08;4.10;99.90
14000;DHT22;7075;53.574;10.054;2023-03-01T01:41:39;4.20;99.90
14000;DHT22;7075;53.574;10.054;2023-03-01T01:44:25;4.20;99.90
14000;DHT22;7075;53.574;10.054;2023-03-01T01:47:05;4.20;99.90
14000;DHT22;7075;53.574;10.054;2023-03-01T01:49:43;4.20;99.90
14000;DHT22;7075;53.574;10.054;2023-03-01T01:52:19;4.20;99.90
14000;DHT22;7075;53.574;10.054;2023-03-01T01:54:59;4.20;99.90
14000;DHT22;7075;53.574;10.054;2023-03-01T01:57:31;4.20;99.90
14000;DHT22;7075;53.574;10.054;2023-03-01T02:00:03;4.20;99.90
14000;DHT22;7075;53.574;10.054;2023-03-01T02:02:30;4.20;99.90
14000;DHT22;7075;53.574;10.054;2023-03-01T02:07:52;4.20;99.90
14000;DHT22;7075;53.574;10.054;2023-03-01T02:10:17;4.20;99.90
14000;DHT22;7075;53.574;10.054;2023-03-01T02:12:43;4.20;99.90
14000;DHT22;7075;53.574;10.054;2023-03-01T02:15:10;4.20;99.90
14000;DHT22;7075;53.574;10.054;2023-03-01T02:17:35;4.20;99.90
14000;DHT22;7075;53.574;10.054;2023-03-01T02:22:51;4.30;99.90
14000;DHT22;7075;53.574;10.054;2023-03-01T02:25:46;4.30;99.90
14000;DHT22;7075;53.574;10.054;2023-03-01T02:30:46;4.30;99.90
14000;DHT22;7075;53.574;10.054;2023-03-01T02:33:33;4.30;99.90
14000;DHT22;7075;53.574;10.054;2023-03-01T02:36:03;4.30;99.90
14000;DHT22;7075;53.574;10.054;2023-03-01T02:38:30;4.30;99.90
14000;DHT22;7075;53.574;10.054;2023-03-01T02:40:57;4.30;99.90
14000;DHT22;7075;53.574;10.054;2023-03-01T02:43:27;4.20;99.90
14000;DHT22;7075;53.574;10.054;2023-03-01T02:46:02;4.10;99.90
14000;DHT22;7075;53.574;10.054;2023-03-01T02:48:43;4.00;99.90
14000;DHT22;7075;53.574;10.054;2023-03-01T02:51:44;3.90;99.90
14000;DHT22;7075;53.574;10.054;2023-03-01T02:54:32;3.90;99.90
14000;DHT22;7075;53.574;10.054;2023-03-01T02:56:59;3.90;99.90
14000;DHT22;7075;53.574;10.054;2023-03-01T02:59:30;3.80;99.90
14000;DHT22;7075;53.574;10.054;2023-03-01T03:01:56;3.80;99.90
14000;DHT22;7075;53.574;10.054;2023-03-01T03:04:22;3.80;99.90
14000;DHT22;7075;53.574;10.054;2023-03-01T03:06:49;3.80;99.90
14000;DHT22;7075;53.574;10.054;2023-03-01T03:09:16;3.90;99.90
14000;DHT22;7075;53.574;10.054;2023-03-01T03:11:41;3.90;99.90
14000;DHT22;7075;53.574;10.054;2023-03-01T03:14:10;3.90;99.90
14000;DHT22;7075;53.574;10.054;2023-03-01T03:16:49;3.80;99.90
14000;DHT22;7075;53.574;10.054;2023-03-01T03:19:19;3.80;99.90
14000;DHT22;7075;53.574;10.054;2023-03-01T03:21:45;3.80;99.90
14000;DHT22;7075;53.574;10.054;2023-03-01T03:24:10;3.70;99.90
14000;DHT22;7075;53.574;10.054;2023-03-01T03:26:36;3.70;99.90
14000;DHT22;7075;53.574;10.054;2023-03-01T03:29:02;3.60;99.90
14000;DHT22;7075;53.574;10.054;2023-03-01T03:31:28;3.60;99.90
14000;DHT22;7075;53.574;10.054;2023-03-01T03:33:54;3.70;99.90
14000;DHT22;7075;53.574;10.054;2023-03-01T03:36:22;3.70;99.90
14000;DHT22;7075;53.574;10.054;2023-03-01T03:38:48;3.70;99.90
14000;DHT22;7075;53.574;10.054;2023-03-01T03:41:15;3.70;99.90
14000;DHT22;7075;53.574;10.054;2023-03-01T03:43:41;3.60;99.90
14000;DHT22;7075;53.574;10.054;2023-03-01T03:46:10;3.50;99.90
14000;DHT22;7075;53.574;10.054;2023-03-01T03:48:39;3.50;99.90
14000;DHT22;7075;53.574;10.054;2023-03-01T03:51:07;3.40;99.90
14000;DHT22;7075;53.574;10.054;2023-03-01T03:53:34;3.30;99.90
14000;DHT22;7075;53.574;10.054;2023-03-01T03:56:00;3.20;99.90
14000;DHT22;7075;53.574;10.054;2023-03-01T03:58:26;3.20;99.90
14000;DHT22;7075;53.574;10.054;2023-03-01T04:00:54;3.30;99.90
14000;DHT22;7075;53.574;10.054;2023-03-01T04:03:21;3.40;99.90
14000;DHT22;7075;53.574;10.054;2023-03-01T04:05:48;3.40;99.90
14000;DHT22;7075;53.574;10.054;2023-03-01T04:08:16;3.50;99.90
14000;DHT22;7075;53.574;10.054;2023-03-01T04:10:44;3.60;99.90
14000;DHT22;7075;53.574;10.054;2023-03-01T04:13:16;3.50;99.90
14000;DHT22;7075;53.574;10.054;2023-03-01T04:15:42;3.50;99.90
14000;DHT22;7075;53.574;10.054;2023-03-01T04:18:15;3.60;99.90
14000;DHT22;7075;53.574;10.054;2023-03-01T04:20:41;3.60;99.90
14000;DHT22;7075;53.574;10.054;2023-03-01T04:23:12;3.60;99.90
14000;DHT22;7075;53.574;10.054;2023-03-01T04:28:09;3.80;99.90
14000;DHT22;7075;53.574;10.054;2023-03-01T04:30:35;3.80;99.90
14000;DHT22;7075;53.574;10.054;2023-03-01T04:33:02;3.80;99.90
14000;DHT22;7075;53.574;10.054;2023-03-01T04:35:30;3.90;99.90
14000;DHT22;7075;53.574;10.054;2023-03-01T04:37:55;3.90;99.90
14000;DHT22;7075;53.574;10.054;2023-03-01T04:40:21;4.00;99.90
14000;DHT22;7075;53.574;10.054;2023-03-01T04:42:46;3.90;99.90
14000;DHT22;7075;53.574;10.054;2023-03-01T04:45:12;3.80;99.90
14000;DHT22;7075;53.574;10.054;2023-03-01T04:47:39;3.90;99.90
14000;DHT22;7075;53.574;10.054;2023-03-01T04:50:06;3.90;99.90
14000;DHT22;7075;53.574;10.054;2023-03-01T04:52:32;3.90;99.90
14000;DHT22;7075;53.574;10.054;2023-03-01T04:54:58;4.00;99.90
14000;DHT22;7075;53.574;10.054;2023-03-01T04:57:23;4.00;99.90
14000;DHT22;7075;53.574;10.054;2023-03-01T04:59:49;4.00;99.90
14000;DHT22;7075;53.574;10.054;2023-03-01T05:02:14;4.00;99.90
14000;DHT22;7075;53.574;10.054;2023-03-01T05:04:40;4.00;99.90
14000;DHT22;7075;53.574;10.054;2023-03-01T05:07:05;4.00;99.90
14000;DHT22;7075;53.574;10.054;2023-03-01T05:09:31;4.10;99.90
14000;DHT22;7075;53.574;10.054;2023-03-01T05:11:56;4.10;99.90
14000;DHT22;7075;53.574;10.054;2023-03-01T05:14:22;4.00;99.90
14000;DHT22;7075;53.574;10.054;2023-03-01T05:16:48;3.90;99.90
14000;DHT22;7075;53.574;10.054;2023-03-01T05:19:13;3.90;99.90
14000;DHT22;7075;53.574;10.054;2023-03-01T05:21:48;3.90;99.90
14000;DHT22;7075;53.574;10.054;2023-03-01T05:24:30;3.90;99.90
14000;DHT22;7075;53.574;10.054;2023-03-01T05:26:56;4.00;99.90
14000;DHT22;7075;53.574;10.054;2023-03-01T05:29:24;4.00;99.90
14000;DHT22;7075;53.574;10.054;2023-03-01T05:32:02;4.10;99.90
14000;DHT22;7075;53.574;10.054;2023-03-01T05:34:31;4.10;99.90
14000;DHT22;7075;53.574;10.054;2023-03-01T05:36:57;4.10;99.90
14000;DHT22;7075;53.574;10.054;2023-03-01T05:39:25;4.10;99.90
14000;DHT22;7075;53.574;10.054;2023-03-01T05:41:59;4.10;99.90
14000;DHT22;7075;53.574;10.054;2023-03-01T05:44:25;4.10;99.90
14000;DHT22;7075;53.574;10.054;2023-03-01T05:46:51;4.10;99.90
14000;DHT22;7075;53.574;10.054;2023-03-01T05:49:18;4.10;99.90
14000;DHT22;7075;53.574;10.054;2023-03-01T05:51:48;4.10;99.90
14000;DHT22;7075;53.574;10.054;2023-03-01T05:54:14;4.00;99.90
14000;DHT22;7075;53.574;10.054;2023-03-01T05:56:39;4.00;99.90
14000;DHT22;7075;53.574;10.054;2023-03-01T05:59:05;4.10;99.90
14000;DHT22;7075;53.574;10.054;2023-03-01T06:01:35;4.10;99.90
14000;DHT22;7075;53.574;10.054;2023-03-01T06:04:01;4.10;99.90
14000;DHT22;7075;53.574;10.054;2023-03-01T06:06:27;4.10;99.90
14000;DHT22;7075;53.574;10.054;2023-03-01T06:08:53;4.10;99.90
14000;DHT22;7075;53.574;10.054;2023-03-01T06:11:19;4.10;99.90
14000;DHT22;7075;53.574;10.054;2023-03-01T06:13:45;4.10;99.90
14000;DHT22;7075;53.574;10.054;2023-03-01T06:16:11;4.10;99.90
14000;DHT22;7075;53.574;10.054;2023-03-01T06:18:37;4.20;99.90
14000;DHT22;7075;53.574;10.054;2023-03-01T06:21:03;4.20;99.90
14000;DHT22;7075;53.574;10.054;2023-03-01T06:23:29;4.20;99.90
14000;DHT22;7075;53.574;10.054;2023-03-01T06:25:55;4.20;99.90
14000;DHT22;7075;53.574;10.054;2023-03-01T06:28:21;4.20;99.90
14000;DHT22;7075;53.574;10.054;2023-03-01T06:30:47;4.10;99.90
14000;DHT22;7075;53.574;10.054;2023-03-01T06:33:13;4.20;99.90
14000;DHT22;7075;53.574;10.054;2023-03-01T06:35:38;4.10;99.90
14000;DHT22;7075;53.574;10.054;2023-03-01T06:38:04;4.10;99.90
14000;DHT22;7075;53.574;10.054;2023-03-01T06:40:31;4.20;99.90
14000;DHT22;7075;53.574;10.054;2023-03-01T06:42:58;4.20;99.90
14000;DHT22;7075;53.574;10.054;2023-03-01T06:45:23;4.20;99.90
14000;DHT22;7075;53.574;10.054;2023-03-01T06:47:50;4.20;99.90
14000;DHT22;7075;53.574;10.054;2023-03-01T06:50:17;4.20;99.90
14000;DHT22;7075;53.574;10.054;2023-03-01T06:52:43;4.20;99.90
14000;DHT22;7075;53.574;10.054;2023-03-01T06:55:10;4.20;99.90
14000;DHT22;7075;53.574;10.054;2023-03-01T06:57:36;4.30;99.90
14000;DHT22;7075;53.574;10.054;2023-03-01T07:00:03;4.30;99.90
14000;DHT22;7075;53.574;10.054;2023-03-01T07:02:28;4.40;99.90
14000;DHT22;7075;53.574;10.054;2023-03-01T07:04:54;4.40;99.90
14000;DHT22;7075;53.574;10.054;2023-03-01T07:07:19;4.40;99.90
14000;DHT22;7075;53.574;10.054;2023-03-01T07:09:46;4.40;99.90
14000;DHT22;7075;53.574;10.054;2023-03-01T07:12:11;4.40;99.90
14000;DHT22;7075;53.574;10.054;2023-03-01T07:14:37;4.40;99.90
14000;DHT22;7075;53.574;10.054;2023-03-01T07:17:03;4.40;99.90
14000;DHT22;7075;53.574;10.054;2023-03-01T07:19:28;4.40;99.90
14000;DHT22;7075;53.574;10.054;2023-03-01T07:21:54;4.40;99.90
14000;DHT22;7075;53.574;10.054;2023-03-01T07:24:21;4.40;99.90
14000;DHT22;7075;53.574;10.054;2023-03-01T07:26:50;4.40;99.90
14000;DHT22;7075;53.574;10.054;2023-03-01T07:29:17;4.40;99.90
14000;DHT22;7075;53.574;10.054;2023-03-01T07:31:43;4.40;99.90
14000;DHT22;7075;53.574;10.054;2023-03-01T07:34:08;4.40;99.90
14000;DHT22;7075;53.574;10.054;2023-03-01T07:36:34;4.50;99.90
14000;DHT22;7075;53.574;10.054;2023-03-01T07:39:00;4.50;99.90
14000;DHT22;7075;53.574;10.054;2023-03-01T07:41:28;4.60;99.90
14000;DHT22;7075;53.574;10.054;2023-03-01T07:43:53;4.60;99.90
14000;DHT22;7075;53.574;10.054;2023-03-01T07:46:19;4.60;99.90
14000;DHT22;7075;53.574;10.054;2023-03-01T07:48:44;4.70;99.90
14000;DHT22;7075;53.574;10.054;2023-03-01T07:51:10;4.70;99.90
14000;DHT22;7075;53.574;10.054;2023-03-01T07:53:36;4.70;99.90
14000;DHT22;7075;53.574;10.054;2023-03-01T07:56:05;4.70;99.90
14000;DHT22;7075;53.574;10.054;2023-03-01T07:58:31;4.70;99.90
14000;DHT22;7075;53.574;10.054;2023-03-01T08:01:01;4.70;99.90
14000;DHT22;7075;53.574;10.054;2023-03-01T08:03:28;4.80;99.90
14000;DHT22;7075;53.574;10.054;2023-03-01T08:05:54;4.80;99.90
14000;DHT22;7075;53.574;10.054;2023-03-01T08:08:19;4.80;99.90
14000;DHT22;7075;53.574;10.054;2023-03-01T08:10:45;4.90;99.90
14000;DHT22;7075;53.574;10.054;2023-03-01T08:13:10;4.90;99.90
14000;DHT22;7075;53.574;10.054;2023-03-01T08:15:36;4.90;99.90
14000;DHT22;7075;53.574;10.054;2023-03-01T08:18:01;4.90;99.90
14000;DHT22;7075;53.574;10.054;2023-03-01T08:20:27;5.00;99.90
14000;DHT22;7075;53.574;10.054;2023-03-01T08:22:53;5.00;99.90
14000;DHT22;7075;53.574;10.054;2023-03-01T08:25:18;5.00;99.90
14000;DHT22;7075;53.574;10.054;2023-03-01T08:27:44;4.90;99.90
14000;DHT22;7075;53.574;10.054;2023-03-01T08:30:10;4.90;99.90
14000;DHT22;7075;53.574;10.054;2023-03-01T08:32:37;5.00;99.90
14000;DHT22;7075;53.574;10.054;2023-03-01T08:35:03;5.00;99.90
14000;DHT22;7075;53.574;10.054;2023-03-01T08:37:28;5.00;99.90
14000;DHT22;7075;53.574;10.054;2023-03-01T08:39:58;5.10;99.90
14000;DHT22;7075;53.574;10.054;2023-03-01T08:42:23;5.10;99.90
14000;DHT22;7075;53.574;10.054;2023-03-01T08:44:49;5.20;99.90
14000;DHT22;7075;53.574;10.054;2023-03-01T08:47:14;5.20;99.90
14000;DHT22;7075;53.574;10.054;2023-03-01T08:49:40;5.20;99.90
14000;DHT22;7075;53.574;10.054;2023-03-01T08:52:05;5.30;99.90
14000;DHT22;7075;53.574;10.054;2023-03-01T08:54:31;5.30;99.90
14000;DHT22;7075;53.574;10.054;2023-03-01T08:56:57;5.40;99.90
14000;DHT22;7075;53.574;10.054;2023-03-01T08:59:25;5.50;99.90
14000;DHT22;7075;53.574;10.054;2023-03-01T09:01:51;5.60;99.90
14000;DHT22;7075;53.574;10.054;2023-03-01T09:04:16;5.60;99.90
14000;DHT22;7075;53.574;10.054;2023-03-01T09:06:42;5.70;99.90
14000;DHT22;7075;53.574;10.054;2023-03-01T09:09:16;5.70;99.90
14000;DHT22;7075;53.574;10.054;2023-03-01T09:11:43;5.70;99.90
14000;DHT22;7075;53.574;10.054;2023-03-01T09:14:09;5.70;99.90
14000;DHT22;7075;53.574;10.054;2023-03-01T09:16:35;5.70;99.90
14000;DHT22;7075;53.574;10.054;2023-03-01T09:19:02;5.70;99.90
14000;DHT22;7075;53.574;10.054;2023-03-01T09:21:28;5.80;99.90
14000;DHT22;7075;53.574;10.054;2023-03-01T09:23:55;5.80;99.90
14000;DHT22;7075;53.574;10.054;2023-03-01T09:26:22;5.80;99.90
14000;DHT22;7075;53.574;10.054;2023-03-01T09:28:53;5.80;99.90
14000;DHT22;7075;53.574;10.054;2023-03-01T09:31:21;6.00;99.90
14000;DHT22;7075;53.574;10.054;2023-03-01T09:33:48;6.00;99.90
14000;DHT22;7075;53.574;10.054;2023-03-01T09:36:19;6.00;99.90
14000;DHT22;7075;53.574;10.054;2023-03-01T09:38:46;6.00;99.90
14000;DHT22;7075;53.574;10.054;2023-03-01T09:44:29;6.10;99.90
14000;DHT22;7075;53.574;10.054;2023-03-01T09:46:57;6.00;99.90
14000;DHT22;7075;53.574;10.054;2023-03-01T09:49:25;6.10;99.90
14000;DHT22;7075;53.574;10.054;2023-03-01T09:52:11;6.10;99.90
14000;DHT22;7075;53.574;10.054;2023-03-01T09:54:36;6.20;99.90
14000;DHT22;7075;53.574;10.054;2023-03-01T10:03:12;6.30;99.90
14000;DHT22;7075;53.574;10.054;2023-03-01T10:05:57;6.20;99.90
14000;DHT22;7075;53.574;10.054;2023-03-01T10:08:47;6.30;99.90
14000;DHT22;7075;53.574;10.054;2023-03-01T10:11:28;6.20;99.90
14000;DHT22;7075;53.574;10.054;2023-03-01T10:14:37;6.30;99.90
14000;DHT22;7075;53.574;10.054;2023-03-01T10:16:58;6.30;99.90
14000;DHT22;7075;53.574;10.054;2023-03-01T10:19:32;6.30;99.90
14000;DHT22;7075;53.574;10.054;2023-03-01T10:22:20;6.40;99.90
14000;DHT22;7075;53.574;10.054;2023-03-01T10:24:47;6.50;99.90
14000;DHT22;7075;53.574;10.054;2023-03-01T10:27:23;6.60;99.90
14000;DHT22;7075;53.574;10.054;2023-03-01T10:29:59;6.70;99.90
14000;DHT22;7075;53.574;10.054;2023-03-01T10:32:26;6.60;99.90
14000;DHT22;7075;53.574;10.054;2023-03-01T10:34:52;6.80;99.90
14000;DHT22;7075;53.574;10.054;2023-03-01T10:37:19;6.90;99.90
14000;DHT22;7075;53.574;10.054;2023-03-01T10:42:33;7.30;99.90
14000;DHT22;7075;53.574;10.054;2023-03-01T10:48:10;7.40;99.90
14000;DHT22;7075;53.574;10.054;2023-03-01T10:50:38;7.50;99.90
14000;DHT22;7075;53.574;10.054;2023-03-01T10:53:05;7.50;99.90
14000;DHT22;7075;53.574;10.054;2023-03-01T10:55:41;7.60;99.90
14000;DHT22;7075;53.574;10.054;2023-03-01T10:58:21;7.60;99.90
14000;DHT22;7075;53.574;10.054;2023-03-01T11:00:53;7.70;99.90
14000;DHT22;7075;53.574;10.054;2023-03-01T11:03:28;7.90;99.90
14000;DHT22;7075;53.574;10.054;2023-03-01T11:06:03;8.00;99.90
14000;DHT22;7075;53.574;10.054;2023-03-01T11:08:41;8.20;99.90
14000;DHT22;7075;53.574;10.054;2023-03-01T11:14:00;8.60;99.90
14000;DHT22;7075;53.574;10.054;2023-03-01T11:16:39;8.40;99.90
14000;DHT22;7075;53.574;10.054;2023-03-01T11:21:47;8.80;99.90
14000;DHT22;7075;53.574;10.054;2023-03-01T11:24:16;8.70;99.90
14000;DHT22;7075;53.574;10.054;2023-03-01T11:26:47;8.60;99.90
14000;DHT22;7075;53.574;10.054;2023-03-01T11:29:38;8.80;99.90
14000;DHT22;7075;53.574;10.054;2023-03-01T11:32:07;8.90;99.90
14000;DHT22;7075;53.574;10.054;2023-03-01T11:37:26;9.10;99.90
14000;DHT22;7075;53.574;10.054;2023-03-01T11:40:01;9.10;99.90
14000;DHT22;7075;53.574;10.054;2023-03-01T11:45:12;9.80;99.90
14000;DHT22;7075;53.574;10.054;2023-03-01T11:47:57;9.60;99.90
14000;DHT22;7075;53.574;10.054;2023-03-01T11:53:16;10.00;99.90
14000;DHT22;7075;53.574;10.054;2023-03-01T11:58:57;10.40;99.90
14000;DHT22;7075;53.574;10.054;2023-03-01T12:04:06;10.90;99.90
14000;DHT22;7075;53.574;10.054;2023-03-01T12:07:00;10.90;99.90
14000;DHT22;7075;53.574;10.054;2023-03-01T12:14:55;11.20;99.90
14000;DHT22;7075;53.574;10.054;2023-03-01T12:20:24;11.20;99.90
14000;DHT22;7075;53.574;10.054;2023-03-01T12:31:16;10.50;99.90
14000;DHT22;7075;53.574;10.054;2023-03-01T12:39:06;10.80;99.90
14000;DHT22;7075;53.574;10.054;2023-03-01T12:50:18;12.20;99.90
14000;DHT22;7075;53.574;10.054;2023-03-01T12:52:56;12.30;99.90
14000;DHT22;7075;53.574;10.054;2023-03-01T13:11:21;14.60;99.90
14000;DHT22;7075;53.574;10.054;2023-03-01T13:13:50;15.30;99.90
14000;DHT22;7075;53.574;10.054;2023-03-01T13:21:51;14.80;99.90
14000;DHT22;7075;53.574;10.054;2023-03-01T13:32:36;15.30;99.90
14000;DHT22;7075;53.574;10.054;2023-03-01T13:37:46;16.20;99.90
14000;DHT22;7075;53.574;10.054;2023-03-01T13:42:48;16.20;99.90
14000;DHT22;7075;53.574;10.054;2023-03-01T13:45:38;16.30;99.90
14000;DHT22;7075;53.574;10.054;2023-03-01T13:50:46;15.50;99.90
14000;DHT22;7075;53.574;10.054;2023-03-01T13:53:19;15.00;99.90
14000;DHT22;7075;53.574;10.054;2023-03-01T13:55:48;14.70;99.90
14000;DHT22;7075;53.574;10.054;2023-03-01T13:58:21;14.50;99.90
14000;DHT22;7075;53.574;10.054;2023-03-01T14:00:54;14.90;99.90
14000;DHT22;7075;53.574;10.054;2023-03-01T14:03:20;15.50;99.90
14000;DHT22;7075;53.574;10.054;2023-03-01T14:06:05;15.70;99.90
14000;DHT22;7075;53.574;10.054;2023-03-01T14:08:34;16.20;99.90
14000;DHT22;7075;53.574;10.054;2023-03-01T14:14:16;15.80;99.90
14000;DHT22;7075;53.574;10.054;2023-03-01T14:17:05;16.20;99.90
14000;DHT22;7075;53.574;10.054;2023-03-01T14:19:36;16.50;99.90
14000;DHT22;7075;53.574;10.054;2023-03-01T14:22:29;16.40;99.90
14000;DHT22;7075;53.574;10.054;2023-03-01T14:25:26;16.50;99.90
14000;DHT22;7075;53.574;10.054;2023-03-01T14:30:53;16.20;99.90
14000;DHT22;7075;53.574;10.054;2023-03-01T14:33:39;16.10;99.90
14000;DHT22;7075;53.574;10.054;2023-03-01T14:36:10;15.90;99.90
14000;DHT22;7075;53.574;10.054;2023-03-01T14:38:46;15.50;99.90
14000;DHT22;7075;53.574;10.054;2023-03-01T14:41:21;15.60;99.90
14000;DHT22;7075;53.574;10.054;2023-03-01T14:43:55;15.90;99.90
14000;DHT22;7075;53.574;10.054;2023-03-01T14:46:29;15.90;99.90
14000;DHT22;7075;53.574;10.054;2023-03-01T14:49:01;16.20;99.90
14000;DHT22;7075;53.574;10.054;2023-03-01T14:51:27;16.30;99.90
14000;DHT22;7075;53.574;10.054;2023-03-01T14:53:55;16.30;99.90
14000;DHT22;7075;53.574;10.054;2023-03-01T14:56:24;16.30;99.90
14000;DHT22;7075;53.574;10.054;2023-03-01T14:58:53;16.30;99.90
14000;DHT22;7075;53.574;10.054;2023-03-01T15:01:22;16.10;99.90
14000;DHT22;7075;53.574;10.054;2023-03-01T15:03:50;16.10;99.90
14000;DHT22;7075;53.574;10.054;2023-03-01T15:06:19;16.10;99.90
14000;DHT22;7075;53.574;10.054;2023-03-01T15:08:51;16.20;99.90
14000;DHT22;7075;53.574;10.054;2023-03-01T15:11:29;16.30;99.90
14000;DHT22;7075;53.574;10.054;2023-03-01T15:13:57;16.50;99.30
14000;DHT22;7075;53.574;10.054;2023-03-01T15:16:27;16.00;99.40
14000;DHT22;7075;53.574;10.054;2023-03-01T15:19:06;16.10;99.40
14000;DHT22;7075;53.574;10.054;2023-03-01T15:21:38;16.20;99.50
14000;DHT22;7075;53.574;10.054;2023-03-01T15:29:18;15.70;99.60
14000;DHT22;7075;53.574;10.054;2023-03-01T15:31:59;15.40;99.80
14000;DHT22;7075;53.574;10.054;2023-03-01T15:34:29;15.20;99.90
14000;DHT22;7075;53.574;10.054;2023-03-01T15:36:58;15.00;99.90
14000;DHT22;7075;53.574;10.054;2023-03-01T15:39:56;14.90;99.90
14000;DHT22;7075;53.574;10.054;2023-03-01T15:48:17;14.50;99.90
14000;DHT22;7075;53.574;10.054;2023-03-01T15:50:58;14.30;99.90
14000;DHT22;7075;53.574;10.054;2023-03-01T15:53:24;14.30;99.90
14000;DHT22;7075;53.574;10.054;2023-03-01T15:55:52;14.20;99.90
14000;DHT22;7075;53.574;10.054;2023-03-01T15:58:23;14.00;99.90
14000;DHT22;7075;53.574;10.054;2023-03-01T16:00:52;14.10;99.90
14000;DHT22;7075;53.574;10.054;2023-03-01T16:03:23;14.00;99.90
14000;DHT22;7075;53.574;10.054;2023-03-01T16:05:50;14.00;99.90
14000;DHT22;7075;53.574;10.054;2023-03-01T16:08:18;13.80;99.90
14000;DHT22;7075;53.574;10.054;2023-03-01T16:10:44;13.60;99.90
14000;DHT22;7075;53.574;10.054;2023-03-01T16:13:12;13.40;99.90
14000;DHT22;7075;53.574;10.054;2023-03-01T16:15:39;13.40;99.90
14000;DHT22;7075;53.574;10.054;2023-03-01T16:18:06;13.40;99.90
14000;DHT22;7075;53.574;10.054;2023-03-01T16:20:33;13.30;99.90
14000;DHT22;7075;53.574;10.054;2023-03-01T16:23:02;13.20;99.90
14000;DHT22;7075;53.574;10.054;2023-03-01T16:25:32;13.10;99.90
14000;DHT22;7075;53.574;10.054;2023-03-01T16:28:04;13.10;99.90
14000;DHT22;7075;53.574;10.054;2023-03-01T16:30:35;13.00;99.90
14000;DHT22;7075;53.574;10.054;2023-03-01T16:33:02;12.90;99.90
14000;DHT22;7075;53.574;10.054;2023-03-01T16:35:34;12.80;99.90
14000;DHT22;7075;53.574;10.054;2023-03-01T16:38:06;12.70;99.90
14000;DHT22;7075;53.574;10.054;2023-03-01T16:40:34;12.50;99.90
14000;DHT22;7075;53.574;10.054;2023-03-01T16:43:03;12.50;99.90
14000;DHT22;7075;53.574;10.054;2023-03-01T16:45:34;12.40;99.90
14000;DHT22;7075;53.574;10.054;2023-03-01T16:48:04;12.40;99.90
14000;DHT22;7075;53.574;10.054;2023-03-01T16:50:32;12.20;99.90
14000;DHT22;7075;53.574;10.054;2023-03-01T16:53:00;12.30;99.90
14000;DHT22;7075;53.574;10.054;2023-03-01T16:55:28;12.10;99.90
14000;DHT22;7075;53.574;10.054;2023-03-01T16:57:57;12.00;99.90
14000;DHT22;7075;53.574;10.054;2023-03-01T17:00:27;12.00;99.90
14000;DHT22;7075;53.574;10.054;2023-03-01T17:02:55;11.90;99.90
14000;DHT22;7075;53.574;10.054;2023-03-01T17:05:23;11.90;99.90
14000;DHT22;7075;53.574;10.054;2023-03-01T17:07:52;11.80;99.90
14000;DHT22;7075;53.574;10.054;2023-03-01T17:10:22;11.60;99.90
14000;DHT22;7075;53.574;10.054;2023-03-01T17:12:51;11.40;99.90
14000;DHT22;7075;53.574;10.054;2023-03-01T17:15:20;11.40;99.90
14000;DHT22;7075;53.574;10.054;2023-03-01T17:17:46;11.40;99.90
14000;DHT22;7075;53.574;10.054;2023-03-01T17:20:16;11.40;99.90
14000;DHT22;7075;53.574;10.054;2023-03-01T17:22:41;11.20;99.90
14000;DHT22;7075;53.574;10.054;2023-03-01T17:25:08;11.20;99.90
14000;DHT22;7075;53.574;10.054;2023-03-01T17:27:35;11.20;99.90
14000;DHT22;7075;53.574;10.054;2023-03-01T17:30:02;11.10;99.90
14000;DHT22;7075;53.574;10.054;2023-03-01T17:32:28;11.00;99.90
14000;DHT22;7075;53.574;10.054;2023-03-01T17:34:55;10.90;99.90
14000;DHT22;7075;53.574;10.054;2023-03-01T17:37:24;10.70;99.90
14000;DHT22;7075;53.574;10.054;2023-03-01T17:39:56;10.60;99.90
14000;DHT22;7075;53.574;10.054;2023-03-01T17:42:25;10.50;99.90
14000;DHT22;7075;53.574;10.054;2023-03-01T17:44:51;10.40;99.90
14000;DHT22;7075;53.574;10.054;2023-03-01T17:47:17;10.30;99.90
14000;DHT22;7075;53.574;10.054;2023-03-01T17:49:42;10.20;99.90
14000;DHT22;7075;53.574;10.054;2023-03-01T17:52:08;10.00;99.90
14000;DHT22;7075;53.574;10.054;2023-03-01T17:54:34;9.90;99.90
14000;DHT22;7075;53.574;10.054;2023-03-01T17:57:00;9.70;99.90
14000;DHT22;7075;53.574;10.054;2023-03-01T17:59:25;9.60;99.90
14000;DHT22;7075;53.574;10.054;2023-03-01T18:01:59;9.50;99.90
14000;DHT22;7075;53.574;10.054;2023-03-01T18:04:26;9.50;99.90
14000;DHT22;7075;53.574;10.054;2023-03-01T18:06:52;9.40;99.90